Time;durP1;ratioP1;P1;durP2;ratioP2;P2;SDS_P1;SDS_P2;PMS_P1;PMS_P2;Temp;Humidity;BMP_temperature;BMP_pressure;BME280_temperature;BME280_humidity;BME280_pressure;Samples;Min_cycle;Max_cycle;Signal;HPM_P1;HPM_P2
2021/07/28 00:00:32;;;;;;;6.78;4.10;;;;;;;21.52;69.58;96354.84;1745417;80;21301;-79
2021/07/28 00:02:59;;;;;;;6.33;3.77;;;;;;;21.49;69.85;96359.31;1742852;80;21271;-80
2021/07/28 00:05:25;;;;;;;4.78;4.00;;;;;;;21.47;69.82;96348.16;1730027;80;20966;-80
2021/07/28 00:07:51;;;;;;;5.20;4.33;;;;;;;21.46;69.24;96350.53;1725056;80;20974;-80
2021/07/28 00:10:17;;;;;;;7.25;4.25;;;;;;;21.51;69.14;96345.31;1743879;80;21206;-80
2021/07/28 00:12:43;;;;;;;5.58;3.70;;;;;;;21.55;69.48;96352.48;1757031;80;20957;-80
2021/07/28 00:15:10;;;;;;;6.08;4.70;;;;;;;21.53;69.19;96353.27;1743430;80;20943;-80
2021/07/28 00:17:41;;;;;;;7.15;4.00;;;;;;;21.50;69.65;96359.05;1751950;80;20909;-80
2021/07/28 00:20:14;;;;;;;8.73;4.05;;;;;;;21.47;69.54;96356.09;1746943;80;21251;-80
2021/07/28 00:25:21;;;;;;;7.17;4.22;;;;;;;21.45;68.74;96353.70;1758837;80;20109;-80
2021/07/28 00:27:49;;;;;;;5.42;4.20;;;;;;;21.48;68.84;96359.83;1763402;80;20916;-80
2021/07/28 00:30:15;;;;;;;4.95;4.05;;;;;;;21.49;68.35;96357.46;1754782;80;21332;-80
2021/07/28 00:32:41;;;;;;;5.72;4.75;;;;;;;21.56;68.87;96358.56;1765494;80;20998;-80
2021/07/28 00:35:07;;;;;;;8.80;4.45;;;;;;;21.58;67.73;96348.01;1692096;83;21004;-80
2021/07/28 00:37:33;;;;;;;5.35;3.98;;;;;;;21.64;67.63;96348.87;1693403;84;20980;-80
2021/07/28 00:39:59;;;;;;;5.95;4.45;;;;;;;21.69;68.14;96345.45;1699651;84;20972;-80
2021/07/28 00:42:24;;;;;;;5.78;4.40;;;;;;;21.68;67.74;96345.98;1720318;83;21379;-79
2021/07/28 00:44:50;;;;;;;6.45;4.20;;;;;;;21.65;68.06;96339.09;1717850;83;21054;-80
2021/07/28 00:47:17;;;;;;;6.97;4.35;;;;;;;21.61;67.95;96338.77;1690456;84;20986;-81
2021/07/28 00:49:42;;;;;;;8.15;3.83;;;;;;;21.58;67.88;96334.79;1711036;83;21026;-80
2021/07/28 00:52:08;;;;;;;7.47;4.50;;;;;;;21.61;67.17;96329.52;1696087;83;20976;-81
2021/07/28 00:54:34;;;;;;;5.80;4.00;;;;;;;21.66;67.15;96329.58;1686625;83;20995;-80
2021/07/28 00:57:00;;;;;;;6.08;4.05;;;;;;;21.69;67.40;96326.42;1693484;83;20988;-81
2021/07/28 00:59:26;;;;;;;6.70;3.80;;;;;;;21.71;66.79;96316.91;1693962;84;21264;-80
2021/07/28 01:01:52;;;;;;;7.67;4.08;;;;;;;21.72;66.11;96314.01;1715791;83;20922;-82
2021/07/28 01:04:19;;;;;;;8.60;4.20;;;;;;;21.78;66.00;96318.80;1713121;83;21240;-82
2021/07/28 01:06:44;;;;;;;5.83;5.20;;;;;;;21.81;66.11;96313.03;1707472;83;20964;-81
2021/07/28 01:09:10;;;;;;;6.45;4.35;;;;;;;21.83;66.29;96312.24;1683798;84;20940;-81
2021/07/28 01:11:36;;;;;;;6.55;4.30;;;;;;;21.79;66.47;96321.19;1694574;84;21302;-82
2021/07/28 01:14:04;;;;;;;6.97;3.75;;;;;;;21.76;66.47;96312.97;1686221;84;20952;-82
2021/07/28 01:16:34;;;;;;;6.25;3.80;;;;;;;21.78;65.68;96320.91;1755966;81;20941;-81
2021/07/28 01:19:01;;;;;;;8.58;3.80;;;;;;;21.83;66.40;96313.56;1741414;81;20932;-81
2021/07/28 01:21:28;;;;;;;7.65;4.30;;;;;;;21.81;66.08;96313.83;1750434;81;20957;-82
2021/07/28 01:23:53;;;;;;;7.87;4.30;;;;;;;21.81;65.66;96311.70;1759034;81;21063;-81
2021/07/28 01:26:19;;;;;;;8.43;4.47;;;;;;;21.83;65.32;96320.97;1747207;81;21065;-81
2021/07/28 01:28:45;;;;;;;7.87;4.65;;;;;;;21.84;65.30;96319.92;1753544;81;20913;-81
2021/07/28 01:31:16;;;;;;;6.45;3.83;;;;;;;21.86;65.65;96321.78;1749439;81;21278;-81
2021/07/28 01:33:44;;;;;;;6.92;3.83;;;;;;;21.83;65.68;96317.53;1744205;81;20877;-81
2021/07/28 01:36:21;;;;;;;5.87;3.95;;;;;;;21.75;66.72;96314.82;1742693;81;20953;-82
2021/07/28 01:38:48;;;;;;;6.78;3.85;;;;;;;21.68;66.50;96316.09;1687436;83;20984;-82
2021/07/28 01:41:14;;;;;;;7.62;4.37;;;;;;;21.64;66.49;96312.34;1755889;81;20941;-82
2021/07/28 01:43:41;;;;;;;7.67;4.28;;;;;;;21.63;66.04;96313.39;1747311;81;20909;-81
2021/07/28 01:46:07;;;;;;;8.88;4.58;;;;;;;21.62;67.00;96314.45;1760782;81;21324;-81
2021/07/28 01:48:33;;;;;;;6.78;4.33;;;;;;;21.60;66.83;96317.34;1680079;84;20932;-82
2021/07/28 01:50:58;;;;;;;10.00;3.98;;;;;;;21.54;66.70;96313.08;1710426;84;20916;-81
2021/07/28 01:53:25;;;;;;;6.22;4.20;;;;;;;21.37;66.69;96302.64;1714841;83;21280;-81
2021/07/28 01:55:53;;;;;;;8.68;5.00;;;;;;;21.37;66.69;96302.64;1760640;80;21399;-81
2021/07/28 01:58:20;;;;;;;7.62;4.85;;;;;;;21.36;67.06;96302.89;1752866;80;20925;-81
2021/07/28 02:00:45;;;;;;;8.00;4.20;;;;;;;21.34;67.21;96308.43;1763997;80;20960;-81
2021/07/28 02:03:11;;;;;;;7.92;4.20;;;;;;;21.28;67.33;96303.61;1753665;80;21284;-81
2021/07/28 02:05:39;;;;;;;5.95;4.20;;;;;;;21.24;67.82;96301.69;1684871;84;20888;-81
2021/07/28 02:08:08;;;;;;;9.60;5.35;;;;;;;21.19;68.34;96312.22;1695177;84;21016;-81
2021/07/28 02:10:39;;;;;;;9.30;4.12;;;;;;;21.09;68.47;96312.91;1726099;83;21294;-81
2021/07/28 02:13:05;;;;;;;7.10;4.47;;;;;;;21.00;68.42;96310.98;1686587;84;21003;-82
2021/07/28 02:15:32;;;;;;;8.58;4.55;;;;;;;20.90;68.61;96307.70;1695091;84;20988;-81
2021/07/28 02:17:58;;;;;;;7.72;4.53;;;;;;;20.82;68.87;96316.05;1686806;84;21039;-82
2021/07/28 02:20:24;;;;;;;8.55;4.55;;;;;;;20.75;68.93;96313.62;1750437;80;21008;-82
2021/07/28 02:22:50;;;;;;;9.43;4.08;;;;;;;20.70;69.09;96314.89;1749405;80;21358;-80
2021/07/28 02:25:16;;;;;;;6.78;4.00;;;;;;;20.65;68.98;96320.09;1759459;80;21013;-81
2021/07/28 02:27:42;;;;;;;10.23;4.37;;;;;;;20.57;69.19;96301.54;1754163;80;21040;-82
2021/07/28 02:30:09;;;;;;;8.65;4.45;;;;;;;20.62;69.16;96311.34;1761399;80;20931;-81
2021/07/28 02:32:35;;;;;;;7.45;4.62;;;;;;;20.65;69.72;96317.45;1763040;80;20958;-82
2021/07/28 02:35:01;;;;;;;10.90;4.60;;;;;;;20.64;69.57;96316.66;1758924;80;20922;-81
2021/07/28 02:37:27;;;;;;;13.83;5.72;;;;;;;20.66;69.86;96323.00;1756645;80;21012;-81
2021/07/28 02:39:53;;;;;;;6.78;4.03;;;;;;;20.80;69.39;96314.98;1688598;83;21281;-81
2021/07/28 02:42:18;;;;;;;9.08;4.20;;;;;;;20.80;69.39;96314.98;1700053;83;20996;-82
2021/07/28 02:44:44;;;;;;;7.35;4.40;;;;;;;20.88;69.37;96323.00;1685754;84;20948;-81
2021/07/28 02:47:10;;;;;;;6.15;4.40;;;;;;;20.96;69.25;96319.91;1751775;80;20900;-81
2021/07/28 02:49:37;;;;;;;6.67;4.53;;;;;;;20.99;69.72;96311.51;1767367;80;20929;-82
2021/07/28 02:52:04;;;;;;;7.65;4.60;;;;;;;21.00;69.22;96313.63;1760413;80;20940;-81
2021/07/28 02:54:29;;;;;;;7.67;4.30;;;;;;;21.02;69.54;96307.56;1764593;80;20900;-82
2021/07/28 02:56:56;;;;;;;8.48;4.45;;;;;;;21.00;69.69;96302.53;1752859;80;21043;-81
2021/07/28 02:59:22;;;;;;;7.00;4.80;;;;;;;21.00;68.88;96298.58;1747717;81;20909;-81
2021/07/28 03:01:49;;;;;;;8.48;4.40;;;;;;;21.07;69.04;96300.48;1751615;80;20921;-82
2021/07/28 03:04:16;;;;;;;10.18;4.67;;;;;;;21.12;69.19;96297.88;1753333;81;20961;-82
2021/07/28 03:06:41;;;;;;;5.20;4.12;;;;;;;21.10;69.30;96303.14;1756055;81;20976;-82
2021/07/28 03:09:07;;;;;;;8.45;3.90;;;;;;;21.08;69.64;96302.07;1722003;81;21413;-81
2021/07/28 03:11:33;;;;;;;7.10;4.20;;;;;;;21.04;69.76;96296.23;1749049;80;20947;-81
2021/07/28 03:13:59;;;;;;;8.58;4.25;;;;;;;21.00;69.97;96299.89;1727204;81;20882;-82
2021/07/28 03:16:25;;;;;;;7.17;4.22;;;;;;;20.98;70.02;96296.16;1751027;81;20956;-81
2021/07/28 03:18:51;;;;;;;6.28;3.92;;;;;;;20.98;69.02;96296.68;1749531;81;20932;-81
2021/07/28 03:21:18;;;;;;;8.33;4.47;;;;;;;21.06;69.52;96296.77;1733395;81;20949;-82
2021/07/28 03:23:43;;;;;;;6.95;4.62;;;;;;;21.10;69.06;96296.02;1744363;80;21233;-81
2021/07/28 03:26:09;;;;;;;6.85;4.47;;;;;;;21.15;69.01;96297.89;1759300;81;20966;-82
2021/07/28 03:28:35;;;;;;;8.78;4.90;;;;;;;21.17;68.69;96295.83;1723954;81;20944;-82
2021/07/28 03:31:01;;;;;;;6.30;3.77;;;;;;;21.20;69.06;96304.05;1757266;81;21278;-82
2021/07/28 03:33:27;;;;;;;7.50;5.00;;;;;;;21.19;69.21;96294.52;1745583;81;20989;-81
2021/07/28 03:35:52;;;;;;;8.38;4.08;;;;;;;21.20;69.35;96297.44;1760996;81;20956;-81
2021/07/28 03:38:18;;;;;;;8.63;4.70;;;;;;;21.21;69.25;96287.14;1753170;81;20940;-82
2021/07/28 03:40:44;;;;;;;7.37;4.37;;;;;;;21.23;69.35;96291.64;1755347;81;21884;-82
2021/07/28 03:43:09;;;;;;;10.13;5.00;;;;;;;21.22;69.24;96289.26;1745690;81;20932;-82
2021/07/28 03:45:35;;;;;;;9.60;5.30;;;;;;;21.21;69.59;96289.78;1756158;81;20968;-82
2021/07/28 03:48:01;;;;;;;6.75;4.10;;;;;;;21.19;69.07;96281.31;1689101;84;20913;-82
2021/07/28 03:50:28;;;;;;;5.90;4.10;;;;;;;21.21;69.65;96279.73;1753186;81;20881;-82
2021/07/28 03:52:57;;;;;;;7.20;4.10;;;;;;;21.18;69.71;96280.25;1756785;81;20965;-82
2021/07/28 03:55:23;;;;;;;9.08;4.33;;;;;;;21.16;70.07;96273.89;1690196;83;20940;-81
2021/07/28 03:57:49;;;;;;;7.53;4.42;;;;;;;21.16;70.37;96271.25;1705341;83;21264;-82
2021/07/28 04:00:15;;;;;;;8.33;4.47;;;;;;;21.17;70.37;96272.84;1691801;83;20975;-82
2021/07/28 04:02:41;;;;;;;7.05;4.40;;;;;;;21.15;70.62;96267.02;1706721;82;20896;-81
2021/07/28 04:05:08;;;;;;;6.55;4.47;;;;;;;21.13;70.30;96261.16;1723611;82;20967;-82
2021/07/28 04:07:35;;;;;;;8.40;4.55;;;;;;;21.15;70.55;96256.95;1707113;83;20958;-82
2021/07/28 04:10:00;;;;;;;9.05;4.78;;;;;;;21.14;70.28;96257.99;1724417;83;20997;-81
2021/07/28 04:12:26;;;;;;;7.03;4.47;;;;;;;21.14;69.97;96256.15;1713109;83;21274;-82
2021/07/28 04:14:52;;;;;;;8.63;3.90;;;;;;;21.21;69.85;96261.24;1723801;83;20965;-81
2021/07/28 04:17:17;;;;;;;9.18;4.42;;;;;;;21.25;69.70;96257.07;1718542;83;20981;-82
2021/07/28 04:19:48;;;;;;;10.45;5.30;;;;;;;21.32;69.83;96260.84;1719926;83;21017;-81
2021/07/28 04:22:11;;;;;;;7.70;4.78;;;;;;;21.35;69.91;96257.69;1717634;83;21314;-82
2021/07/28 04:24:37;;;;;;;6.50;4.50;;;;;;;21.35;70.03;96258.48;1722895;83;21053;-81
2021/07/28 04:27:04;;;;;;;12.45;5.15;;;;;;;21.36;69.71;96256.64;1715102;83;21097;-81
2021/07/28 04:29:29;;;;;;;8.90;4.08;;;;;;;21.39;69.46;96250.31;1719435;83;20938;-82
2021/07/28 04:31:55;;;;;;;9.55;4.97;;;;;;;21.46;69.14;96248.24;1712551;83;20951;-82
2021/07/28 04:34:21;;;;;;;9.03;5.00;;;;;;;21.53;69.06;96243.55;1709174;82;20935;-82
2021/07/28 04:36:46;;;;;;;7.05;4.22;;;;;;;21.60;68.88;96236.71;1686584;82;21311;-82
2021/07/28 04:39:12;;;;;;;7.12;3.70;;;;;;;21.65;68.69;96235.97;1715865;82;20959;-82
2021/07/28 04:41:38;;;;;;;10.35;4.87;;;;;;;21.71;68.28;96238.38;1694226;83;20982;-82
2021/07/28 04:44:04;;;;;;;10.30;4.45;;;;;;;21.75;68.84;96231.52;1722620;82;21236;-82
2021/07/28 04:46:30;;;;;;;10.88;4.10;;;;;;;21.79;67.80;96227.83;1695151;83;21342;-82
2021/07/28 04:48:55;;;;;;;10.23;4.15;;;;;;;21.87;68.27;96230.00;1687264;83;20971;-81
2021/07/28 04:51:22;;;;;;;9.03;4.37;;;;;;;21.93;67.90;96236.90;1720098;82;21051;-82
2021/07/28 04:53:48;;;;;;;5.75;4.12;;;;;;;21.99;67.76;96233.25;1719065;82;21307;-81
2021/07/28 04:56:13;;;;;;;8.28;4.42;;;;;;;22.04;67.42;96233.27;1718877;82;21000;-82
2021/07/28 04:58:39;;;;;;;6.85;3.98;;;;;;;22.12;66.85;96231.98;1705095;83;20981;-80
2021/07/28 05:01:05;;;;;;;10.82;4.42;;;;;;;22.19;66.81;96233.89;1740789;81;20916;-80
2021/07/28 05:03:31;;;;;;;7.83;4.37;;;;;;;22.24;66.53;96235.22;1741471;81;21246;-80
2021/07/28 05:05:56;;;;;;;9.93;4.47;;;;;;;22.36;66.12;96221.25;1751115;81;21008;-80
2021/07/28 05:08:22;;;;;;;7.50;5.25;;;;;;;22.36;66.12;96221.25;1684998;84;20981;-80
2021/07/28 05:10:50;;;;;;;9.73;4.33;;;;;;;22.39;66.25;96230.52;1759873;81;20945;-80
2021/07/28 05:13:16;;;;;;;9.45;3.90;;;;;;;22.40;65.38;96226.28;1750865;81;21046;-81
2021/07/28 05:15:42;;;;;;;9.95;4.40;;;;;;;22.45;65.67;96227.64;1719153;81;20970;-80
2021/07/28 05:18:08;;;;;;;9.00;4.35;;;;;;;22.53;65.34;96221.56;1732285;81;21275;-80
2021/07/28 05:20:34;;;;;;;10.25;5.37;;;;;;;22.59;65.42;96226.59;1734134;82;20889;-80
2021/07/28 05:22:59;;;;;;;10.65;4.37;;;;;;;22.63;65.55;96214.98;1732736;81;20945;-80
2021/07/28 05:25:28;;;;;;;8.78;4.00;;;;;;;22.65;65.67;96222.13;1741428;81;20960;-80
2021/07/28 05:27:53;;;;;;;10.90;4.78;;;;;;;22.66;65.09;96213.13;1714648;81;21357;-80
2021/07/28 05:30:18;;;;;;;8.03;4.15;;;;;;;22.68;65.38;96217.09;1720689;81;20989;-80
2021/07/28 05:32:44;;;;;;;7.62;4.87;;;;;;;22.68;65.34;96219.75;1731599;82;21317;-80
2021/07/28 05:35:11;;;;;;;10.65;4.53;;;;;;;22.68;65.34;96219.75;1728943;82;20973;-80
2021/07/28 05:37:36;;;;;;;8.25;4.25;;;;;;;22.70;65.04;96226.09;1734696;81;20921;-80
2021/07/28 05:40:04;;;;;;;8.05;3.98;;;;;;;22.70;65.47;96222.92;1721040;81;21010;-80
2021/07/28 05:42:30;;;;;;;9.18;4.53;;;;;;;22.71;64.63;96219.75;1727616;81;21034;-80
2021/07/28 05:44:56;;;;;;;7.42;4.65;;;;;;;22.76;64.28;96219.74;1726520;81;21001;-81
2021/07/28 05:47:22;;;;;;;8.15;4.90;;;;;;;22.82;64.89;96216.59;1743575;81;20920;-81
2021/07/28 05:49:47;;;;;;;11.22;5.17;;;;;;;22.87;64.15;96216.62;1724959;81;21004;-80
2021/07/28 05:52:13;;;;;;;12.07;5.22;;;;;;;22.93;64.51;96227.48;1725087;81;21000;-80
2021/07/28 05:54:39;;;;;;;10.38;4.55;;;;;;;23.00;64.53;96229.36;1723290;81;20994;-80
2021/07/28 05:57:05;;;;;;;9.58;4.60;;;;;;;23.00;64.53;96229.36;1708894;80;21065;-81
2021/07/28 05:59:30;;;;;;;8.73;5.20;;;;;;;23.01;64.86;96225.11;1720526;82;20984;-81
2021/07/28 06:01:56;;;;;;;8.45;4.58;;;;;;;23.04;64.49;96225.11;1738331;81;21001;-80
2021/07/28 06:04:22;;;;;;;11.60;5.35;;;;;;;23.06;64.55;96223.78;1696874;82;20917;-80
2021/07/28 06:06:48;;;;;;;11.00;5.00;;;;;;;23.08;65.21;96226.17;1717470;81;20984;-80
2021/07/28 06:09:14;;;;;;;12.28;5.15;;;;;;;23.09;64.98;96230.94;1724422;81;20989;-80
2021/07/28 06:11:40;;;;;;;9.13;4.37;;;;;;;23.12;65.00;96228.58;1724881;81;21005;-79
2021/07/28 06:14:06;;;;;;;10.38;4.22;;;;;;;23.16;64.29;96228.30;1739873;81;20954;-80
2021/07/28 06:16:33;;;;;;;12.75;5.08;;;;;;;23.23;64.04;96235.98;1721295;81;20964;-80
2021/07/28 06:18:58;;;;;;;8.50;4.75;;;;;;;23.31;63.73;96232.81;1654483;84;20968;-80
2021/07/28 06:21:25;;;;;;;8.75;4.53;;;;;;;23.36;64.38;96236.25;1718096;82;20953;-79
2021/07/28 06:23:50;;;;;;;10.80;4.65;;;;;;;23.38;64.43;96232.00;1729289;81;20959;-79
2021/07/28 06:26:16;;;;;;;10.40;4.62;;;;;;;23.39;64.43;96236.24;1747472;81;21020;-79
2021/07/28 06:28:42;;;;;;;12.95;5.30;;;;;;;23.43;64.18;96239.15;1731213;81;20928;-79
2021/07/28 06:31:08;;;;;;;8.23;5.53;;;;;;;23.45;64.62;96243.68;1732185;81;20981;-79
2021/07/28 06:33:33;;;;;;;9.53;5.17;;;;;;;23.46;64.83;96241.30;1715357;82;20890;-79
2021/07/28 06:35:59;;;;;;;9.60;4.67;;;;;;;23.49;64.29;96240.75;1711574;82;20949;-79
2021/07/28 06:38:25;;;;;;;6.33;5.00;;;;;;;23.51;64.07;96239.42;1743302;81;20904;-80
2021/07/28 06:40:50;;;;;;;8.85;4.67;;;;;;;23.55;64.30;96241.00;1733951;81;20947;-79
2021/07/28 06:43:16;;;;;;;9.45;4.85;;;;;;;23.57;63.05;96246.33;1729012;81;21564;-80
2021/07/28 06:45:42;;;;;;;11.05;4.55;;;;;;;23.63;63.67;96247.93;1719184;81;20996;-80
2021/07/28 06:48:08;;;;;;;11.43;4.90;;;;;;;23.69;64.19;96243.41;1763830;81;21068;-80
2021/07/28 06:50:33;;;;;;;9.05;5.08;;;;;;;23.77;63.98;96244.73;1726951;82;20937;-80
2021/07/28 06:52:59;;;;;;;10.58;5.08;;;;;;;23.85;63.41;96240.19;1730635;81;20940;-80
2021/07/28 06:55:25;;;;;;;11.15;5.17;;;;;;;23.91;63.21;96243.87;1708974;81;20924;-80
2021/07/28 06:57:51;;;;;;;11.12;5.03;;;;;;;23.97;63.12;96239.37;1745634;80;21016;-79
2021/07/28 07:00:17;;;;;;;9.13;5.33;;;;;;;24.03;64.26;96241.47;1709442;82;20953;-79
2021/07/28 07:02:43;;;;;;;13.13;5.22;;;;;;;24.05;63.25;96240.66;1723616;82;20936;-79
2021/07/28 07:05:11;;;;;;;10.38;4.60;;;;;;;24.08;62.83;96235.63;1704280;82;21063;-80
2021/07/28 07:07:37;;;;;;;12.25;4.87;;;;;;;24.13;63.80;96242.77;1727971;81;20968;-79
2021/07/28 07:10:08;;;;;;;10.28;4.78;;;;;;;24.17;63.53;96242.48;1745187;80;21300;-82
2021/07/28 07:12:31;;;;;;;9.38;4.87;;;;;;;24.20;63.00;96237.42;1741219;81;20973;-80
2021/07/28 07:14:56;;;;;;;7.42;5.08;;;;;;;24.23;63.18;96236.88;1730685;82;21311;-82
2021/07/28 07:17:22;;;;;;;7.97;4.92;;;;;;;24.28;62.43;96232.62;1709780;82;20965;-82
2021/07/28 07:19:48;;;;;;;9.70;5.33;;;;;;;24.33;62.37;96232.62;1732186;81;20964;-82
2021/07/28 07:22:14;;;;;;;10.80;5.05;;;;;;;24.38;62.26;96236.58;1738503;81;20972;-83
2021/07/28 07:24:41;;;;;;;10.53;4.72;;;;;;;24.43;62.66;96233.92;1720296;82;20980;-83
2021/07/28 07:27:07;;;;;;;8.78;4.50;;;;;;;24.50;62.43;96233.08;1734085;81;21031;-83
2021/07/28 07:29:33;;;;;;;9.65;5.00;;;;;;;24.55;60.93;96226.41;1714382;83;21008;-82
2021/07/28 07:32:00;;;;;;;7.83;4.67;;;;;;;24.59;61.01;96234.11;1689803;84;22040;-83
2021/07/28 07:34:25;;;;;;;9.55;4.80;;;;;;;24.65;61.13;96233.53;1687788;84;21061;-83
2021/07/28 07:36:51;;;;;;;11.15;4.80;;;;;;;24.67;61.00;96220.23;1684506;83;21325;-80
2021/07/28 07:39:17;;;;;;;8.08;4.60;;;;;;;24.72;60.54;96222.05;1680843;83;21341;-80
2021/07/28 07:41:43;;;;;;;8.93;4.55;;;;;;;24.77;61.10;96223.38;1693259;83;20975;-80
2021/07/28 07:44:08;;;;;;;10.13;4.58;;;;;;;24.79;61.42;96218.03;1733329;81;21016;-80
2021/07/28 07:46:34;;;;;;;10.40;4.90;;;;;;;24.84;60.02;96214.55;1726467;82;21378;-81
2021/07/28 07:49:00;;;;;;;6.50;4.60;;;;;;;24.90;59.85;96217.98;1722414;82;20973;-82
2021/07/28 07:51:28;;;;;;;10.25;5.47;;;;;;;24.94;60.00;96211.83;1733138;81;21009;-82
2021/07/28 07:53:53;;;;;;;7.80;4.30;;;;;;;25.00;60.48;96208.62;1715082;83;20931;-81
2021/07/28 07:56:19;;;;;;;7.00;3.83;;;;;;;25.05;60.03;96210.69;1716472;82;21011;-81
2021/07/28 07:58:45;;;;;;;9.18;4.35;;;;;;;25.11;59.09;96216.78;1744102;80;21375;-82
2021/07/28 08:01:12;;;;;;;6.80;4.47;;;;;;;25.17;58.38;96214.33;1727349;80;21012;-82
2021/07/28 08:03:39;;;;;;;6.40;4.00;;;;;;;25.24;59.11;96210.04;1676213;84;21362;-82
2021/07/28 08:06:05;;;;;;;10.82;4.75;;;;;;;25.31;59.46;96215.28;1690291;84;20995;-80
2021/07/28 08:08:31;;;;;;;8.13;4.28;;;;;;;25.40;58.90;96213.62;1729814;80;20940;-81
2021/07/28 08:10:57;;;;;;;9.40;4.10;;;;;;;25.49;58.86;96212.46;1748283;80;21262;-80
2021/07/28 08:13:23;;;;;;;8.35;4.78;;;;;;;25.58;58.30;96215.31;1753220;80;20893;-80
2021/07/28 08:15:49;;;;;;;10.13;5.20;;;;;;;25.70;57.35;96215.73;1725504;80;20932;-81
2021/07/28 08:18:15;;;;;;;8.95;4.33;;;;;;;25.81;57.48;96216.44;1729277;80;21003;-81
2021/07/28 08:20:41;;;;;;;6.55;4.60;;;;;;;25.92;57.84;96217.92;1743723;80;20911;-81
2021/07/28 08:23:07;;;;;;;10.25;4.80;;;;;;;26.07;57.35;96211.64;1726060;82;21339;-83
2021/07/28 08:25:35;;;;;;;7.65;4.10;;;;;;;26.20;57.43;96209.62;1702051;82;21251;-81
2021/07/28 08:28:00;;;;;;;8.58;4.78;;;;;;;26.35;56.94;96210.77;1736689;80;21270;-82
2021/07/28 08:30:26;;;;;;;9.60;3.95;;;;;;;26.49;56.01;96213.52;1734011;82;20905;-81
2021/07/28 08:32:52;;;;;;;7.58;4.25;;;;;;;26.60;56.36;96206.98;1747149;80;20932;-81
2021/07/28 08:35:18;;;;;;;7.22;4.55;;;;;;;26.73;57.24;96211.60;1735632;80;20991;-81
2021/07/28 08:37:43;;;;;;;6.55;4.00;;;;;;;26.83;55.98;96206.10;1742206;82;20957;-83
2021/07/28 08:40:15;;;;;;;10.75;4.58;;;;;;;26.90;52.31;96207.09;1732580;80;21278;-82
2021/07/28 08:42:45;;;;;;;9.78;4.30;;;;;;;27.06;54.98;96199.14;1737476;80;20945;-82
2021/07/28 08:45:14;;;;;;;8.43;3.52;;;;;;;27.06;54.98;96199.14;1742665;80;21004;-82
2021/07/28 08:47:39;;;;;;;9.05;4.00;;;;;;;27.27;54.13;96208.92;1740713;80;20936;-83
2021/07/28 08:50:09;;;;;;;9.18;3.75;;;;;;;27.43;52.90;96216.92;1738522;82;21012;-83
2021/07/28 08:52:35;;;;;;;7.70;4.15;;;;;;;27.51;51.60;96216.81;1738900;80;21087;-81
2021/07/28 08:55:03;;;;;;;9.63;4.62;;;;;;;27.36;52.50;96212.52;1705377;82;22226;-82
2021/07/28 08:57:31;;;;;;;7.60;4.10;;;;;;;27.33;52.87;96211.75;1712497;81;21329;-82
2021/07/28 08:59:57;;;;;;;6.58;3.87;;;;;;;27.44;50.46;96209.71;1741432;80;20964;-82
2021/07/28 09:02:24;;;;;;;8.45;4.78;;;;;;;27.58;51.99;96215.08;1735165;80;21242;-82
2021/07/28 09:04:50;;;;;;;8.48;3.60;;;;;;;27.71;51.08;96219.14;1751220;81;20943;-82
2021/07/28 09:07:16;;;;;;;6.80;4.03;;;;;;;27.75;50.19;96221.46;1739490;80;20926;-81
2021/07/28 09:09:58;;;;;;;8.40;4.05;;;;;;;27.78;51.21;96219.53;1741567;80;20940;-81
2021/07/28 09:12:33;;;;;;;5.87;3.75;;;;;;;27.94;51.59;96215.24;1751127;80;21348;-81
2021/07/28 09:15:04;;;;;;;9.40;3.87;;;;;;;28.06;51.17;96219.55;1738058;80;20958;-81
2021/07/28 09:17:31;;;;;;;6.83;3.70;;;;;;;28.20;51.67;96215.55;1733371;81;20973;-81
2021/07/28 09:19:58;;;;;;;7.95;3.90;;;;;;;28.29;50.85;96219.12;1776810;80;21297;-82
2021/07/28 09:22:27;;;;;;;8.73;4.62;;;;;;;28.25;50.09;96218.90;1757609;80;20907;-82
2021/07/28 09:25:29;;;;;;;10.15;4.85;;;;;;;28.31;50.83;96216.42;1740703;81;21060;-82
2021/07/28 09:27:51;;;;;;;7.50;4.42;;;;;;;28.42;50.90;96223.66;1754969;80;21383;-82
2021/07/28 09:30:25;;;;;;;7.00;4.47;;;;;;;28.52;49.66;96224.79;1758562;80;20960;-81
2021/07/28 09:33:09;;;;;;;10.63;4.50;;;;;;;28.53;50.55;96222.91;1757788;81;20988;-81
2021/07/28 09:36:10;;;;;;;9.78;4.10;;;;;;;28.61;50.19;96217.62;1755924;81;20921;-80
2021/07/28 09:38:47;;;;;;;8.13;4.60;;;;;;;28.71;50.21;96224.64;1692040;84;21050;-81
2021/07/28 09:41:18;;;;;;;8.33;4.17;;;;;;;28.38;49.27;96219.46;1710145;83;21014;-81
2021/07/28 09:43:54;;;;;;;8.55;4.67;;;;;;;28.39;50.26;96218.38;1731679;82;21425;-81
2021/07/28 09:46:36;;;;;;;10.15;4.22;;;;;;;28.43;49.84;96219.11;1690625;83;21068;-81
2021/07/28 09:49:05;;;;;;;7.85;4.58;;;;;;;28.50;49.97;96215.50;1684553;84;21203;-81
2021/07/28 09:51:36;;;;;;;11.25;5.30;;;;;;;28.56;50.84;96212.40;1681719;83;20988;-81
2021/07/28 09:54:06;;;;;;;7.17;4.28;;;;;;;28.52;51.20;96215.44;1716923;82;20991;-81
2021/07/28 09:56:49;;;;;;;6.67;4.10;;;;;;;28.68;50.78;96214.56;1698345;83;20959;-81
2021/07/28 09:59:15;;;;;;;8.55;4.60;;;;;;;28.75;50.77;96208.78;1670819;85;20971;-81
2021/07/28 10:01:42;;;;;;;7.58;4.53;;;;;;;28.84;50.67;96208.33;1728685;82;20981;-81
2021/07/28 10:04:10;;;;;;;7.78;4.45;;;;;;;28.83;49.75;96204.07;1725364;82;21268;-81
2021/07/28 10:06:39;;;;;;;8.68;4.75;;;;;;;28.85;50.26;96207.23;1688116;84;20892;-81
2021/07/28 10:09:09;;;;;;;9.88;5.17;;;;;;;28.87;50.23;96203.73;1718400;83;20935;-81
2021/07/28 10:11:38;;;;;;;9.18;4.78;;;;;;;28.84;50.62;96201.09;1706903;82;21027;-83
2021/07/28 10:14:03;;;;;;;9.93;4.37;;;;;;;28.97;51.76;96200.29;1685474;83;21036;-82
2021/07/28 10:16:33;;;;;;;9.13;4.60;;;;;;;29.00;49.96;96198.89;1712559;82;21281;-83
2021/07/28 10:19:03;;;;;;;9.50;4.65;;;;;;;28.99;50.33;96202.11;1717739;82;20932;-82
2021/07/28 10:21:34;;;;;;;10.13;4.87;;;;;;;29.08;50.91;96203.49;1707086;84;20939;-83
2021/07/28 10:24:00;;;;;;;9.47;5.00;;;;;;;29.14;49.03;96196.16;1717558;82;21220;-82
2021/07/28 10:26:25;;;;;;;9.93;4.53;;;;;;;29.16;49.82;96195.30;1716219;82;21233;-83
2021/07/28 10:28:54;;;;;;;9.93;5.17;;;;;;;29.23;49.37;96201.79;1708493;83;21058;-83
2021/07/28 10:31:20;;;;;;;8.70;4.97;;;;;;;29.33;48.98;96195.95;1724327;82;22803;-83
2021/07/28 10:33:54;;;;;;;8.28;5.03;;;;;;;29.29;48.51;96191.77;1719231;82;21071;-82
2021/07/28 10:36:47;;;;;;;8.78;4.53;;;;;;;29.36;50.72;96189.98;1710095;82;20977;-81
2021/07/28 10:39:15;;;;;;;8.73;4.62;;;;;;;29.49;50.04;96186.47;1700104;82;20924;-82
2021/07/28 10:41:46;;;;;;;9.10;4.90;;;;;;;29.59;49.61;96194.22;1663860;84;21000;-82
2021/07/28 10:44:18;;;;;;;7.80;5.00;;;;;;;29.51;48.22;96193.09;1709595;82;21035;-82
2021/07/28 10:47:08;;;;;;;10.60;5.33;;;;;;;29.45;47.79;96201.52;1696637;82;20978;-82
2021/07/28 10:49:42;;;;;;;10.15;5.10;;;;;;;29.45;48.32;96191.63;1718781;82;20984;-81
2021/07/28 10:52:13;;;;;;;9.10;4.55;;;;;;;29.19;49.04;96196.81;1706855;82;20995;-81
2021/07/28 10:54:59;;;;;;;11.28;5.17;;;;;;;28.92;48.73;96198.26;1672441;84;21030;-81
2021/07/28 10:57:39;;;;;;;11.65;5.15;;;;;;;28.64;49.49;96194.88;1721883;82;21338;-82
2021/07/28 11:00:09;;;;;;;9.20;4.70;;;;;;;28.53;49.96;96199.64;1727244;81;21029;-81
2021/07/28 11:03:08;;;;;;;11.40;5.42;;;;;;;28.59;49.62;96189.63;1733879;81;20972;-81
2021/07/28 11:05:34;;;;;;;9.35;5.00;;;;;;;28.75;51.45;96192.75;1731903;82;20989;-81
2021/07/28 11:08:08;;;;;;;7.92;5.72;;;;;;;28.98;49.94;96189.04;1738307;81;20982;-81
2021/07/28 11:10:47;;;;;;;9.10;4.85;;;;;;;29.13;49.30;96183.88;1731167;81;20892;-81
2021/07/28 11:13:17;;;;;;;10.15;5.35;;;;;;;29.25;49.48;96182.20;1706172;81;20979;-81
2021/07/28 11:15:54;;;;;;;11.22;5.25;;;;;;;29.33;48.77;96186.04;1758645;81;20965;-82
2021/07/28 11:18:43;;;;;;;10.85;5.25;;;;;;;29.20;48.82;96175.64;1752354;81;20977;-82
2021/07/28 11:21:24;;;;;;;11.10;4.35;;;;;;;29.18;51.80;96185.87;1677555;84;21019;-82
2021/07/28 11:23:59;;;;;;;8.37;4.97;;;;;;;29.19;49.70;96175.95;1673559;84;20984;-82
2021/07/28 11:26:27;;;;;;;9.25;5.40;;;;;;;29.26;49.93;96173.63;1684055;83;20908;-82
2021/07/28 11:28:56;;;;;;;9.78;5.72;;;;;;;29.41;50.99;96180.48;1684727;83;20996;-82
2021/07/28 11:31:28;;;;;;;10.13;5.25;;;;;;;29.50;49.15;96180.81;1686722;83;21062;-83
2021/07/28 11:34:07;;;;;;;9.18;5.00;;;;;;;29.62;49.75;96179.45;1687403;83;21018;-82
2021/07/28 11:36:34;;;;;;;10.93;5.15;;;;;;;29.76;49.10;96174.22;1732873;81;20902;-81